Time;durP1;ratioP1;P1;durP2;ratioP2;P2;SDS_P1;SDS_P2;PMS_P1;PMS_P2;Temp;Humidity;BMP_temperature;BMP_pressure;BME280_temperature;BME280_humidity;BME280_pressure;Samples;Min_cycle;Max_cycle;Signal;HPM_P1;HPM_P2
2022/04/01 00:02:58;;;;;;;9.10;4.28;;;;;;;;;;10317002;28;20051;-68
2022/04/01 00:08:02;;;;;;;12.35;4.45;;;;;;;;;;10328367;28;20042;-67
2022/04/01 00:13:05;;;;;;;9.57;5.00;;;;;;;;;;10323253;28;20289;-67
2022/04/01 00:18:08;;;;;;;9.25;4.05;;;;;;;;;;10316247;28;20058;-67
2022/04/01 00:23:12;;;;;;;7.40;4.57;;;;;;;;;;10327385;28;20047;-67
2022/04/01 00:28:14;;;;;;;5.75;3.78;;;;;;;;;;10333842;28;20042;-67
2022/04/01 00:33:16;;;;;;;6.32;4.03;;;;;;;;;;10324376;28;20334;-68
2022/04/01 00:38:20;;;;;;;9.80;3.97;;;;;;;;;;10322700;28;20046;-67
2022/04/01 00:43:30;;;;;;;5.80;3.63;;;;;;;;;;10324986;28;20081;-66
2022/04/01 00:48:33;;;;;;;7.00;4.50;;;;;;;;;;10336268;28;20316;-67
2022/04/01 00:53:37;;;;;;;7.72;4.00;;;;;;;;;;10354062;28;20053;-67
2022/04/01 00:58:40;;;;;;;10.32;4.18;;;;;;;;;;10349688;28;20043;-67
2022/04/01 01:03:43;;;;;;;6.38;3.63;;;;;;;;;;10322327;28;20115;-68
2022/04/01 01:08:47;;;;;;;7.45;3.90;;;;;;;;;;10344208;28;20063;-67
2022/04/01 01:13:49;;;;;;;5.13;3.45;;;;;;;;;;10315236;28;20396;-67
2022/04/01 01:19:03;;;;;;;8.95;3.67;;;;;;;;;;10340399;28;20046;-67
2022/04/01 01:24:09;;;;;;;5.80;4.00;;;;;;;;;;10326219;28;20076;-67
2022/04/01 01:29:14;;;;;;;5.18;3.67;;;;;;;;;;10352294;28;20230;-67
2022/04/01 01:34:17;;;;;;;6.00;3.72;;;;;;;;;;10368001;28;20060;-67
2022/04/01 01:39:20;;;;;;;8.05;3.95;;;;;;;;;;10326697;28;20113;-67
2022/04/01 01:44:24;;;;;;;10.70;4.25;;;;;;;;;;10314140;28;20550;-68
2022/04/01 01:49:27;;;;;;;9.07;3.63;;;;;;;;;;10313814;28;20043;-67
2022/04/01 01:54:44;;;;;;;4.57;3.58;;;;;;;;;;10336926;28;20046;-67
2022/04/01 01:59:49;;;;;;;7.03;3.58;;;;;;;;;;10336233;28;20053;-67
2022/04/01 02:04:52;;;;;;;8.63;3.80;;;;;;;;;;10345558;28;20058;-67
2022/04/01 02:09:54;;;;;;;4.97;3.35;;;;;;;;;;10314806;28;20070;-66
2022/04/01 02:14:59;;;;;;;6.22;4.13;;;;;;;;;;10352763;28;20241;-66
2022/04/01 02:20:01;;;;;;;9.38;4.55;;;;;;;;;;10352142;28;20269;-67
2022/04/01 02:25:07;;;;;;;5.45;3.80;;;;;;;;;;10353594;28;20088;-67
2022/04/01 02:30:12;;;;;;;5.38;2.70;;;;;;;;;;10349022;28;20070;-67
2022/04/01 02:35:15;;;;;;;7.13;3.70;;;;;;;;;;10360597;28;20080;-66
2022/04/01 02:40:17;;;;;;;5.22;3.10;;;;;;;;;;10324623;28;20043;-67
2022/04/01 02:45:24;;;;;;;9.73;4.18;;;;;;;;;;10323463;28;20109;-67
2022/04/01 02:50:26;;;;;;;8.45;3.97;;;;;;;;;;10324266;28;20050;-68
2022/04/01 02:55:28;;;;;;;6.40;3.70;;;;;;;;;;10333698;28;20093;-67
2022/04/01 03:00:32;;;;;;;8.32;3.50;;;;;;;;;;10296930;28;20097;-67
2022/04/01 03:05:35;;;;;;;7.03;2.78;;;;;;;;;;10324877;28;20047;-67
2022/04/01 03:10:39;;;;;;;3.63;3.15;;;;;;;;;;10323576;28;20152;-67
2022/04/01 03:15:43;;;;;;;6.15;3.40;;;;;;;;;;10336747;28;20046;-68
2022/04/01 03:20:45;;;;;;;3.20;2.80;;;;;;;;;;10332958;28;20051;-67
2022/04/01 03:25:49;;;;;;;5.63;3.30;;;;;;;;;;10310595;28;20109;-66
2022/04/01 03:30:52;;;;;;;4.90;3.22;;;;;;;;;;10309521;28;20058;-67
2022/04/01 03:35:55;;;;;;;4.50;3.55;;;;;;;;;;10345499;28;20275;-67
2022/04/01 03:40:58;;;;;;;8.65;3.13;;;;;;;;;;10311130;28;20043;-67
2022/04/01 03:46:08;;;;;;;4.25;3.25;;;;;;;;;;10309241;28;20338;-67
2022/04/01 03:51:17;;;;;;;7.57;3.70;;;;;;;;;;10328723;28;20222;-67
2022/04/01 03:56:24;;;;;;;4.85;3.13;;;;;;;;;;10354890;28;21067;-67
2022/04/01 04:01:28;;;;;;;5.70;3.42;;;;;;;;;;10356838;28;20128;-66
2022/04/01 04:06:34;;;;;;;3.88;2.92;;;;;;;;;;10349372;28;20113;-67
2022/04/01 04:11:36;;;;;;;9.55;2.95;;;;;;;;;;10358548;28;20070;-67
2022/04/01 04:16:45;;;;;;;4.00;3.05;;;;;;;;;;10309487;28;20073;-67
2022/04/01 04:21:53;;;;;;;13.63;4.10;;;;;;;;;;10322399;28;20066;-67
2022/04/01 04:27:06;;;;;;;6.68;3.22;;;;;;;;;;10329880;28;20089;-67
2022/04/01 04:32:14;;;;;;;8.45;3.58;;;;;;;;;;10327814;28;20101;-67
2022/04/01 04:37:22;;;;;;;8.35;3.72;;;;;;;;;;10365408;28;20049;-67
2022/04/01 04:42:26;;;;;;;4.80;3.30;;;;;;;;;;10316892;28;20078;-67
2022/04/01 04:47:32;;;;;;;13.50;3.70;;;;;;;;;;10324580;28;20038;-66
2022/04/01 04:52:39;;;;;;;7.70;3.53;;;;;;;;;;10334231;28;20125;-67
2022/04/01 04:57:43;;;;;;;5.78;3.60;;;;;;;;;;10330675;28;20038;-68
2022/04/01 05:03:06;;;;;;;7.22;3.60;;;;;;;;;;10336603;28;20325;-68
2022/04/01 05:08:18;;;;;;;4.88;3.45;;;;;;;;;;10344915;28;20329;-68
2022/04/01 05:13:23;;;;;;;6.55;2.97;;;;;;;;;;10321779;28;20293;-67
2022/04/01 05:18:30;;;;;;;;;;;;;;;;;;10353543;28;20066;-66
2022/04/01 05:23:45;;;;;;;11.98;3.38;;;;;;;;;;10346301;28;19925;-66
2022/04/01 05:28:52;;;;;;;6.33;3.37;;;;;;;;;;10340701;28;20066;-67
2022/04/01 05:34:04;;;;;;;5.30;2.70;;;;;;;;;;10350618;28;20050;-67
2022/04/01 05:39:06;;;;;;;13.70;3.13;;;;;;;;;;10355746;28;20108;-67
2022/04/01 05:44:10;;;;;;;9.93;3.60;;;;;;;;;;10329984;28;20118;-69
2022/04/01 05:49:15;;;;;;;15.38;4.35;;;;;;;;;;10349758;28;20038;-67
2022/04/01 05:54:19;;;;;;;5.57;4.05;;;;;;;;;;10313688;28;20076;-67
2022/04/01 05:59:24;;;;;;;4.07;2.78;;;;;;;;;;10349709;28;20050;-67
2022/04/01 06:05:09;;;;;;;11.95;3.38;;;;;;;;;;10342276;28;20059;-69
2022/04/01 06:10:22;;;;;;;4.50;3.03;;;;;;;;;;10323917;28;20082;-67
2022/04/01 06:15:31;;;;;;;11.55;3.25;;;;;;;;;;10326674;28;20054;-67
2022/04/01 06:20:37;;;;;;;5.20;2.38;;;;;;;;;;10348160;28;20038;-67
2022/04/01 06:25:47;;;;;;;20.15;3.80;;;;;;;;;;10342441;28;20069;-68
2022/04/01 06:30:50;;;;;;;14.90;3.08;;;;;;;;;;10331186;28;20051;-69
2022/04/01 06:35:57;;;;;;;15.52;3.05;;;;;;;;;;10343914;28;20273;-67
2022/04/01 06:41:06;;;;;;;9.18;2.85;;;;;;;;;;10352604;28;20043;-66
2022/04/01 06:46:08;;;;;;;35.78;4.55;;;;;;;;;;10335472;28;20097;-67
2022/04/01 06:51:11;;;;;;;8.30;3.45;;;;;;;;;;10334871;28;20569;-67
2022/04/01 06:56:15;;;;;;;14.68;3.28;;;;;;;;;;10328837;28;20065;-67
2022/04/01 07:01:18;;;;;;;13.43;3.50;;;;;;;;;;10337080;28;20058;-68
2022/04/01 07:06:22;;;;;;;19.95;3.90;;;;;;;;;;10339945;28;20113;-68
2022/04/01 07:11:25;;;;;;;20.27;4.38;;;;;;;;;;10336851;28;20035;-67
2022/04/01 07:16:28;;;;;;;37.90;4.20;;;;;;;;;;10330231;28;20042;-67
2022/04/01 07:21:31;;;;;;;8.23;3.13;;;;;;;;;;10337277;28;20065;-66
2022/04/01 07:26:34;;;;;;;18.67;3.35;;;;;;;;;;10336722;28;20042;-66
2022/04/01 07:37:07;;;;;;;20.02;3.85;;;;;;;;;;10341564;28;20042;-67
2022/04/01 07:42:11;;;;;;;21.30;3.80;;;;;;;;;;10339365;28;20046;-66
2022/04/01 07:47:14;;;;;;;41.77;4.97;;;;;;;;;;10346337;28;20042;-68
2022/04/01 07:52:19;;;;;;;21.92;4.03;;;;;;;;;;10338605;28;20353;-67
2022/04/01 07:57:23;;;;;;;74.63;6.13;;;;;;;;;;10345395;28;20046;-67
2022/04/01 08:02:25;;;;;;;48.20;5.53;;;;;;;;;;10343017;28;20081;-68
2022/04/01 08:07:28;;;;;;;24.70;3.97;;;;;;;;;;10345800;28;20054;-68
2022/04/01 08:12:35;;;;;;;37.42;4.32;;;;;;;;;;10330867;28;20051;-69
2022/04/01 08:17:37;;;;;;;26.45;3.45;;;;;;;;;;10353189;28;20039;-68
2022/04/01 08:22:40;;;;;;;34.78;4.07;;;;;;;;;;10342593;28;20065;-68
2022/04/01 08:27:44;;;;;;;59.03;5.57;;;;;;;;;;10338425;28;20047;-68
2022/04/01 08:32:46;;;;;;;;;;;;;;;;;;10340465;28;20090;-68
2022/04/01 08:37:49;;;;;;;13.38;3.15;;;;;;;;;;10344794;28;19930;-67
2022/04/01 08:42:53;;;;;;;10.77;2.83;;;;;;;;;;10341921;28;20361;-67
2022/04/01 08:47:57;;;;;;;;;;;;;;;;;;10336520;28;20058;-67
2022/04/01 08:52:59;;;;;;;29.50;3.90;;;;;;;;;;10341014;28;19930;-66
2022/04/01 08:58:04;;;;;;;67.57;5.15;;;;;;;;;;10328928;28;20046;-67
2022/04/01 09:03:10;;;;;;;24.63;3.78;;;;;;;;;;10340077;28;20383;-67
2022/04/01 09:08:15;;;;;;;33.13;4.63;;;;;;;;;;10358348;28;20326;-67
2022/04/01 09:13:20;;;;;;;49.60;4.40;;;;;;;;;;10317478;28;20256;-67
2022/04/01 09:18:40;;;;;;;23.05;3.25;;;;;;;;;;10313934;28;20357;-67
2022/04/01 09:23:47;;;;;;;30.00;3.38;;;;;;;;;;10319581;28;20186;-67
2022/04/01 09:28:53;;;;;;;41.55;3.90;;;;;;;;;;10369001;28;20120;-69
2022/04/01 09:33:56;;;;;;;36.25;4.13;;;;;;;;;;10336021;28;20050;-71
2022/04/01 09:39:01;;;;;;;35.03;3.65;;;;;;;;;;10311481;28;20250;-67
2022/04/01 09:44:12;;;;;;;29.23;2.97;;;;;;;;;;10324483;28;20054;-67
2022/04/01 09:49:30;;;;;;;23.17;2.83;;;;;;;;;;10313584;28;20109;-67
2022/04/01 09:54:32;;;;;;;39.53;4.50;;;;;;;;;;10325750;28;20057;-67
2022/04/01 09:59:36;;;;;;;25.02;3.33;;;;;;;;;;10315825;28;20049;-67
2022/04/01 10:04:39;;;;;;;19.92;2.95;;;;;;;;;;10330198;28;20070;-67
2022/04/01 10:09:43;;;;;;;23.75;2.88;;;;;;;;;;10320670;28;20348;-67
2022/04/01 10:14:48;;;;;;;30.63;2.67;;;;;;;;;;10343180;28;20050;-68
2022/04/01 10:19:50;;;;;;;8.02;2.63;;;;;;;;;;10328211;28;20078;-67
2022/04/01 10:25:00;;;;;;;11.70;2.47;;;;;;;;;;10327574;28;20070;-67
2022/04/01 10:30:05;;;;;;;10.25;2.33;;;;;;;;;;10332754;28;20051;-67
2022/04/01 10:35:09;;;;;;;26.02;5.82;;;;;;;;;;10310172;28;20058;-67
2022/04/01 10:40:17;;;;;;;21.40;4.03;;;;;;;;;;10304689;28;20051;-68
2022/04/01 10:45:26;;;;;;;21.58;2.78;;;;;;;;;;10329693;28;20063;-68
2022/04/01 10:55:48;;;;;;;16.67;3.15;;;;;;;;;;10310301;28;20086;-68
2022/04/01 11:00:54;;;;;;;35.22;3.88;;;;;;;;;;10316774;28;20055;-68
2022/04/01 11:06:22;;;;;;;14.45;3.08;;;;;;;;;;10324006;28;20094;-67
2022/04/01 11:11:24;;;;;;;16.73;2.88;;;;;;;;;;10319207;28;20051;-67
2022/04/01 11:16:28;;;;;;;11.63;3.03;;;;;;;;;;10317188;28;20059;-67
2022/04/01 11:21:30;;;;;;;14.73;2.80;;;;;;;;;;10314070;28;20047;-67
2022/04/01 11:26:43;;;;;;;34.70;3.75;;;;;;;;;;10308632;28;20046;-67
2022/04/01 11:31:46;;;;;;;22.40;3.85;;;;;;;;;;10313365;28;20349;-67
2022/04/01 11:36:49;;;;;;;18.70;3.13;;;;;;;;;;10308652;28;20047;-68
2022/04/01 11:41:54;;;;;;;41.10;4.22;;;;;;;;;;10307439;28;20047;-69
2022/04/01 11:46:58;;;;;;;22.08;3.42;;;;;;;;;;10341914;28;20070;-67
2022/04/01 11:52:00;;;;;;;31.67;4.07;;;;;;;;;;10328124;28;20034;-67
2022/04/01 11:57:03;;;;;;;23.02;3.65;;;;;;;;;;10332061;28;20359;-68
2022/04/01 12:02:11;;;;;;;74.63;7.53;;;;;;;;;;10344864;28;20146;-68
2022/04/01 12:12:34;;;;;;;64.18;6.10;;;;;;;;;;10322232;28;20043;-67
2022/04/01 12:17:49;;;;;;;20.52;3.33;;;;;;;;;;10346663;28;20058;-67
2022/04/01 12:22:52;;;;;;;18.42;3.70;;;;;;;;;;10322694;28;20042;-68
2022/04/01 12:27:55;;;;;;;15.15;4.05;;;;;;;;;;10318301;28;20050;-68
2022/04/01 12:33:01;;;;;;;21.33;4.25;;;;;;;;;;10316964;28;20291;-67
2022/04/01 12:38:08;;;;;;;16.73;3.58;;;;;;;;;;10323029;28;20050;-68
2022/04/01 12:43:27;;;;;;;29.70;4.20;;;;;;;;;;10346377;28;20112;-67
2022/04/01 12:48:39;;;;;;;23.55;3.60;;;;;;;;;;10336119;28;20085;-67
2022/04/01 12:53:52;;;;;;;21.88;4.55;;;;;;;;;;10324918;28;20156;-67
2022/04/01 12:58:56;;;;;;;44.90;4.97;;;;;;;;;;10355693;28;20124;-68
2022/04/01 13:04:01;;;;;;;26.98;4.05;;;;;;;;;;10357282;28;20054;-68
2022/04/01 13:09:07;;;;;;;20.23;3.10;;;;;;;;;;10352681;28;20070;-67
2022/04/01 13:14:20;;;;;;;23.83;3.97;;;;;;;;;;10368838;28;20248;-68
2022/04/01 13:19:27;;;;;;;39.05;13.05;;;;;;;;;;10358041;28;20078;-69
2022/04/01 13:24:36;;;;;;;19.73;3.90;;;;;;;;;;10369920;28;20042;-68
2022/04/01 13:29:39;;;;;;;41.15;4.00;;;;;;;;;;10337272;28;20100;-67
2022/04/01 13:34:43;;;;;;;23.45;6.47;;;;;;;;;;10337678;28;20081;-68
2022/04/01 13:39:46;;;;;;;40.42;4.22;;;;;;;;;;10316844;28;20078;-69
2022/04/01 13:44:48;;;;;;;19.63;3.22;;;;;;;;;;10352149;28;20046;-67
2022/04/01 13:49:52;;;;;;;19.85;3.63;;;;;;;;;;10355008;28;20042;-68
2022/04/01 13:54:55;;;;;;;15.68;4.28;;;;;;;;;;10353238;28;20224;-68
2022/04/01 13:59:57;;;;;;;17.25;3.80;;;;;;;;;;10353236;28;20049;-69
2022/04/01 14:05:01;;;;;;;27.75;3.92;;;;;;;;;;10317478;28;20054;-67
2022/04/01 14:10:05;;;;;;;16.20;3.90;;;;;;;;;;10320926;28;20039;-67
2022/04/01 14:15:08;;;;;;;24.40;3.83;;;;;;;;;;10323456;28;20227;-69
2022/04/01 14:20:12;;;;;;;13.85;3.03;;;;;;;;;;10314761;28;20042;-68
2022/04/01 14:25:15;;;;;;;16.40;3.58;;;;;;;;;;10314332;28;20093;-67
2022/04/01 14:30:18;;;;;;;15.93;4.10;;;;;;;;;;10346847;28;20070;-68
2022/04/01 14:35:24;;;;;;;9.43;3.35;;;;;;;;;;10327557;28;20065;-68
2022/04/01 14:40:26;;;;;;;27.00;3.67;;;;;;;;;;10328606;28;20356;-66
2022/04/01 14:45:29;;;;;;;16.38;5.10;;;;;;;;;;10353379;28;20039;-67
2022/04/01 14:50:36;;;;;;;17.42;3.53;;;;;;;;;;10346933;28;20329;-68
2022/04/01 14:55:39;;;;;;;15.43;3.95;;;;;;;;;;10340000;28;20069;-67
2022/04/01 15:00:43;;;;;;;24.63;4.72;;;;;;;;;;10312582;28;20105;-68
2022/04/01 15:05:47;;;;;;;26.52;6.13;;;;;;;;;;10308214;28;20058;-67
2022/04/01 15:10:49;;;;;;;20.77;4.45;;;;;;;;;;10312178;28;20341;-69
2022/04/01 15:15:52;;;;;;;18.05;3.25;;;;;;;;;;10312353;28;20057;-68
2022/04/01 15:20:56;;;;;;;18.17;3.50;;;;;;;;;;10311406;28;20392;-69
2022/04/01 15:25:58;;;;;;;13.90;4.78;;;;;;;;;;10301317;28;20090;-68
2022/04/01 15:31:00;;;;;;;15.75;3.33;;;;;;;;;;10314885;28;20189;-68
2022/04/01 15:36:04;;;;;;;11.68;3.88;;;;;;;;;;10352046;28;20046;-68
2022/04/01 15:41:09;;;;;;;12.95;3.42;;;;;;;;;;10351957;28;20054;-67
2022/04/01 15:46:14;;;;;;;9.18;3.97;;;;;;;;;;10353042;28;20054;-69
2022/04/01 15:51:19;;;;;;;19.08;4.60;;;;;;;;;;10311634;28;20043;-75
2022/04/01 15:56:22;;;;;;;14.32;3.53;;;;;;;;;;10316689;28;20173;-68
2022/04/01 16:01:28;;;;;;;9.77;3.60;;;;;;;;;;10326270;28;20077;-69
2022/04/01 16:06:32;;;;;;;14.52;3.72;;;;;;;;;;10351817;28;20089;-68
2022/04/01 16:11:37;;;;;;;34.20;5.15;;;;;;;;;;10308849;28;20077;-69
2022/04/01 16:16:43;;;;;;;30.02;5.18;;;;;;;;;;10328839;28;20054;-70
2022/04/01 16:21:48;;;;;;;25.45;5.00;;;;;;;;;;10349530;28;20097;-68
2022/04/01 16:26:50;;;;;;;12.40;5.20;;;;;;;;;;10334321;28;20038;-68
2022/04/01 16:31:53;;;;;;;15.00;5.80;;;;;;;;;;10335946;28;20049;-69
2022/04/01 16:36:57;;;;;;;14.70;4.70;;;;;;;;;;10323772;28;20066;-68
2022/04/01 16:41:59;;;;;;;13.13;5.03;;;;;;;;;;10319667;28;20050;-69
2022/04/01 16:47:02;;;;;;;16.10;4.85;;;;;;;;;;10308383;28;20062;-70
2022/04/01 16:52:06;;;;;;;13.40;5.25;;;;;;;;;;10318972;28;20049;-69
2022/04/01 16:57:09;;;;;;;6.85;4.68;;;;;;;;;;10317799;28;20288;-67
2022/04/01 17:02:12;;;;;;;12.63;4.72;;;;;;;;;;10306730;28;20062;-68
2022/04/01 17:12:38;;;;;;;9.10;4.20;;;;;;;;;;10355734;28;20046;-68
2022/04/01 17:17:41;;;;;;;9.85;4.13;;;;;;;;;;10348716;28;20233;-68
2022/04/01 17:22:46;;;;;;;15.38;4.20;;;;;;;;;;10344246;28;20039;-69
2022/04/01 17:27:48;;;;;;;17.45;4.47;;;;;;;;;;10343433;28;20058;-67
2022/04/01 17:32:53;;;;;;;11.43;4.38;;;;;;;;;;10341231;28;20051;-68
2022/04/01 17:37:57;;;;;;;17.25;4.57;;;;;;;;;;10328389;28;20090;-67
2022/04/01 17:43:01;;;;;;;25.92;5.07;;;;;;;;;;10349045;28;20050;-70
2022/04/01 17:48:06;;;;;;;16.75;5.82;;;;;;;;;;10352809;28;20178;-68
2022/04/01 17:53:09;;;;;;;31.65;5.85;;;;;;;;;;10356093;28;20046;-69
2022/04/01 17:58:14;;;;;;;18.35;4.75;;;;;;;;;;10336497;28;20049;-68
2022/04/01 18:03:22;;;;;;;16.67;5.43;;;;;;;;;;10317108;28;20074;-69
2022/04/01 18:08:28;;;;;;;43.78;6.53;;;;;;;;;;10341661;28;20053;-69
2022/04/01 18:13:30;;;;;;;31.50;5.68;;;;;;;;;;10329664;28;20070;-69
2022/04/01 18:18:33;;;;;;;20.30;6.03;;;;;;;;;;10341699;28;20150;-68
2022/04/01 18:23:39;;;;;;;17.98;5.82;;;;;;;;;;10333385;28;20050;-68
2022/04/01 18:28:49;;;;;;;16.15;5.47;;;;;;;;;;10331483;28;20054;-68
2022/04/01 18:33:55;;;;;;;18.63;6.00;;;;;;;;;;10347921;28;20042;-68
2022/04/01 18:39:03;;;;;;;27.85;6.15;;;;;;;;;;10325663;28;20294;-69
2022/04/01 18:44:07;;;;;;;15.93;6.10;;;;;;;;;;10356710;28;20050;-69
2022/04/01 18:49:10;;;;;;;24.60;7.50;;;;;;;;;;10351495;28;20050;-69
2022/04/01 18:54:14;;;;;;;17.10;6.53;;;;;;;;;;10343962;28;20062;-70
2022/04/01 18:59:16;;;;;;;26.80;6.97;;;;;;;;;;10314961;28;20038;-68
2022/04/01 19:04:32;;;;;;;16.90;6.32;;;;;;;;;;10314202;28;20373;-68
2022/04/01 19:09:50;;;;;;;23.60;7.13;;;;;;;;;;10339716;28;20042;-68
2022/04/01 19:14:57;;;;;;;23.40;7.35;;;;;;;;;;10355266;28;20065;-68
2022/04/01 19:20:02;;;;;;;20.58;6.95;;;;;;;;;;10365720;28;20069;-67
2022/04/01 19:25:08;;;;;;;19.00;7.38;;;;;;;;;;10323421;28;20070;-69
2022/04/01 19:30:13;;;;;;;21.27;8.73;;;;;;;;;;10340711;28;20089;-68
2022/04/01 19:35:17;;;;;;;21.77;6.65;;;;;;;;;;10333337;28;20038;-68
2022/04/01 19:40:20;;;;;;;19.38;6.75;;;;;;;;;;10325569;28;20050;-69
2022/04/01 19:45:23;;;;;;;17.35;7.05;;;;;;;;;;10327728;28;20154;-68
2022/04/01 19:50:26;;;;;;;16.20;6.15;;;;;;;;;;10333345;28;20043;-68
2022/04/01 19:55:30;;;;;;;17.77;6.47;;;;;;;;;;10329324;28;20062;-67
2022/04/01 20:00:32;;;;;;;15.25;6.55;;;;;;;;;;10322419;28;20085;-69
2022/04/01 20:05:38;;;;;;;16.15;6.57;;;;;;;;;;10312086;28;20093;-68
2022/04/01 20:10:41;;;;;;;25.17;7.10;;;;;;;;;;10330608;28;20058;-69
2022/04/01 20:15:44;;;;;;;16.63;7.03;;;;;;;;;;10310736;28;20097;-68
2022/04/01 20:20:46;;;;;;;18.70;6.85;;;;;;;;;;10321244;28;20069;-68
2022/04/01 20:25:53;;;;;;;17.45;7.20;;;;;;;;;;10325961;28;20298;-67
2022/04/01 20:30:56;;;;;;;17.05;7.40;;;;;;;;;;10341662;28;20111;-67
2022/04/01 20:35:58;;;;;;;13.60;6.90;;;;;;;;;;10312331;28;20046;-69
2022/04/01 20:41:16;;;;;;;11.43;6.32;;;;;;;;;;10334140;28;20210;-69
2022/04/01 20:46:18;;;;;;;12.50;6.55;;;;;;;;;;10348008;28;20043;-68
2022/04/01 20:51:21;;;;;;;16.45;6.13;;;;;;;;;;10350702;28;20085;-68
2022/04/01 20:56:25;;;;;;;14.07;6.97;;;;;;;;;;10318754;28;20268;-69
2022/04/01 21:01:28;;;;;;;10.32;5.45;;;;;;;;;;10307156;28;20154;-69
2022/04/01 21:06:31;;;;;;;21.70;7.32;;;;;;;;;;10315073;28;20416;-69
2022/04/01 21:11:35;;;;;;;17.52;7.28;;;;;;;;;;10313962;28;20126;-68
2022/04/01 21:16:37;;;;;;;15.68;6.47;;;;;;;;;;10354599;28;20050;-68
2022/04/01 21:21:39;;;;;;;15.00;5.95;;;;;;;;;;10322438;28;20073;-69
2022/04/01 21:32:03;;;;;;;11.38;5.85;;;;;;;;;;10344210;28;20049;-68
2022/04/01 21:37:06;;;;;;;9.80;6.15;;;;;;;;;;10353155;28;20046;-67
2022/04/01 21:42:11;;;;;;;12.73;6.40;;;;;;;;;;10314862;28;20082;-68
2022/04/01 21:47:15;;;;;;;11.60;6.18;;;;;;;;;;10327417;28;20073;-68
2022/04/01 21:52:18;;;;;;;9.57;5.60;;;;;;;;;;10332881;28;20414;-68
2022/04/01 21:57:23;;;;;;;10.90;5.40;;;;;;;;;;10323695;28;20047;-67
2022/04/01 22:02:26;;;;;;;7.80;5.38;;;;;;;;;;10324713;28;20082;-68
2022/04/01 22:07:28;;;;;;;12.45;6.72;;;;;;;;;;10335370;28;20110;-68
2022/04/01 22:12:33;;;;;;;8.13;5.53;;;;;;;;;;10326804;28;20051;-68
2022/04/01 22:17:35;;;;;;;12.23;6.10;;;;;;;;;;10317426;28;20054;-69
2022/04/01 22:22:37;;;;;;;13.38;6.03;;;;;;;;;;10316316;28;20063;-67
2022/04/01 22:27:41;;;;;;;9.73;5.75;;;;;;;;;;10332196;28;20046;-68
2022/04/01 22:32:43;;;;;;;22.55;5.15;;;;;;;;;;10312745;28;20038;-67
2022/04/01 22:37:46;;;;;;;13.65;6.45;;;;;;;;;;10314767;28;20124;-68
2022/04/01 22:42:50;;;;;;;13.25;6.53;;;;;;;;;;10340219;28;20049;-68
2022/04/01 22:47:53;;;;;;;10.00;6.07;;;;;;;;;;10316046;28;20318;-68
2022/04/01 22:52:55;;;;;;;9.98;5.55;;;;;;;;;;10312248;28;20042;-69
2022/04/01 22:58:02;;;;;;;11.40;6.60;;;;;;;;;;10311266;28;20062;-68
2022/04/01 23:03:05;;;;;;;10.10;6.18;;;;;;;;;;10311707;28;20051;-69
2022/04/01 23:08:08;;;;;;;10.95;6.45;;;;;;;;;;10311240;28;20047;-68
2022/04/01 23:13:12;;;;;;;9.57;5.78;;;;;;;;;;10311799;28;20043;-71
2022/04/01 23:18:15;;;;;;;16.25;6.50;;;;;;;;;;10337254;28;20069;-69
2022/04/01 23:23:17;;;;;;;8.55;5.25;;;;;;;;;;10326886;28;20360;-69
2022/04/01 23:28:21;;;;;;;11.80;5.95;;;;;;;;;;10311691;28;20302;-69
2022/04/01 23:33:23;;;;;;;9.30;5.95;;;;;;;;;;10311164;28;20334;-68
2022/04/01 23:38:25;;;;;;;11.65;6.40;;;;;;;;;;10325314;28;20055;-69
2022/04/01 23:43:29;;;;;;;12.10;6.50;;;;;;;;;;10311414;28;20065;-69
2022/04/01 23:48:32;;;;;;;8.53;5.47;;;;;;;;;;10309933;28;20061;-69
2022/04/01 23:53:35;;;;;;;12.82;5.70;;;;;;;;;;10339709;28;20077;-68
2022/04/01 23:58:39;;;;;;;10.10;6.00;;;;;;;;;;10341631;28;20046;-68
